createdAt,value
2023-02-22T06:06:22.331Z,99.90
2023-02-22T06:08:50.310Z,99.90
2023-02-22T06:11:19.647Z,99.90
2023-02-22T06:13:52.833Z,99.90
2023-02-22T06:16:21.912Z,99.90
2023-02-22T06:18:50.407Z,99.90
2023-02-22T06:21:18.610Z,99.90
2023-02-22T06:23:46.440Z,99.90
2023-02-22T06:26:17.183Z,99.90
2023-02-22T06:28:44.908Z,99.90
2023-02-22T06:31:14.276Z,99.90
2023-02-22T06:33:42.064Z,99.90
2023-02-22T06:36:11.406Z,99.90
2023-02-22T06:38:39.230Z,99.90
2023-02-22T06:41:07.100Z,99.90
2023-02-22T11:24:49.256Z,86.70
2023-02-22T11:27:26.255Z,85.60
2023-02-22T11:29:54.312Z,84.90
2023-02-22T11:32:24.626Z,83.10
2023-02-22T11:35:03.671Z,81.50
2023-02-22T11:37:38.152Z,85.90
2023-02-22T11:40:13.948Z,84.30
2023-02-22T11:42:41.785Z,83.30
2023-02-22T11:45:13.496Z,84.60
2023-02-22T11:47:52.465Z,81.50
2023-02-22T11:50:29.740Z,79.70
2023-02-22T11:53:11.357Z,77.90
2023-02-22T11:55:48.529Z,76.80
2023-02-22T11:58:30.900Z,80.30
2023-02-22T12:01:07.236Z,78.80
2023-02-22T12:03:59.027Z,76.00
2023-02-22T12:06:40.399Z,74.90
2023-02-22T12:09:14.783Z,74.80
2023-02-22T12:11:54.886Z,72.60
2023-02-22T12:14:31.752Z,74.00
2023-02-22T12:17:19.573Z,73.90
2023-02-22T12:19:50.811Z,73.30
2023-02-22T12:22:24.305Z,74.40
2023-02-22T12:25:09.128Z,74.40
2023-02-22T12:27:45.113Z,73.20
2023-02-22T12:30:20.093Z,74.30
2023-02-22T12:32:51.604Z,74.80
2023-02-22T12:35:22.668Z,74.50
2023-02-22T12:37:58.402Z,73.40
2023-02-22T12:40:35.543Z,74.20
2023-02-22T12:43:12.314Z,74.00
2023-02-22T12:45:48.233Z,74.50
2023-02-22T12:48:32.437Z,74.80
2023-02-22T12:51:09.422Z,75.60
2023-02-22T12:53:41.337Z,72.00
2023-02-22T12:56:21.065Z,68.80
2023-02-22T12:58:58.902Z,70.40
2023-02-22T13:01:30.998Z,69.20
2023-02-22T13:04:02.100Z,70.60
2023-02-22T13:06:46.207Z,70.50
2023-02-22T13:09:42.908Z,72.40
2023-02-22T13:12:19.077Z,74.20
2023-02-22T13:14:59.896Z,74.60
2023-02-22T13:17:34.791Z,74.20
2023-02-22T13:20:08.456Z,73.80
2023-02-22T13:22:41.576Z,72.10
2023-02-22T13:25:15.335Z,71.50
2023-02-22T13:27:46.480Z,71.80
2023-02-22T13:30:23.427Z,72.70
2023-02-22T13:33:23.525Z,72.90
2023-02-22T13:36:09.050Z,72.30
2023-02-22T13:39:08.146Z,72.60
2023-02-22T13:42:00.606Z,72.00
2023-02-22T13:44:55.745Z,71.90
2023-02-22T13:47:58.554Z,72.30
2023-02-22T13:50:52.005Z,71.40
2023-02-22T13:53:24.769Z,70.80
2023-02-22T13:55:56.615Z,70.30
2023-02-22T13:58:25.695Z,72.40
2023-02-22T14:00:55.774Z,72.70
2023-02-22T14:03:40.471Z,72.50
2023-02-22T14:06:11.029Z,72.00
2023-02-22T14:08:45.909Z,72.20
2023-02-22T14:11:56.825Z,74.80
2023-02-22T14:14:25.702Z,74.50
2023-02-22T14:17:23.764Z,76.00
2023-02-22T14:20:21.987Z,75.60
2023-02-22T14:22:52.854Z,76.60
2023-02-22T14:25:33.782Z,75.40
2023-02-22T14:28:03.748Z,77.40
2023-02-22T14:30:34.781Z,77.80
2023-02-22T14:33:02.991Z,79.40
2023-02-22T14:35:49.558Z,77.90
2023-02-22T14:38:20.344Z,78.50
2023-02-22T14:40:50.235Z,79.90
2023-02-22T14:43:20.848Z,77.80
2023-02-22T14:45:53.466Z,77.20
2023-02-22T14:48:28.836Z,73.60
2023-02-22T14:51:05.899Z,73.00
2023-02-22T14:53:45.016Z,73.20
2023-02-22T14:56:20.954Z,73.40
2023-02-22T14:58:54.942Z,73.40
2023-02-22T15:01:44.488Z,72.80
2023-02-22T15:04:19.430Z,72.70
2023-02-22T15:06:49.330Z,72.30
2023-02-22T15:09:25.059Z,72.30
2023-02-22T15:12:12.762Z,73.60
2023-02-22T16:38:27.966Z,99.90
2023-02-22T16:40:58.381Z,99.90
2023-02-22T16:43:31.462Z,99.90
2023-02-22T16:46:01.644Z,99.90
2023-02-22T16:48:32.546Z,99.90
2023-02-22T16:51:07.415Z,99.90
2023-02-22T16:53:38.171Z,99.90
2023-02-22T16:56:11.649Z,99.90
2023-02-22T16:58:41.783Z,99.90
2023-02-22T17:01:12.477Z,99.90
2023-02-22T17:03:40.605Z,99.90
2023-02-22T17:06:10.856Z,99.90
2023-02-22T17:08:40.361Z,99.90
2023-02-22T17:11:08.791Z,99.90
2023-02-22T17:13:36.884Z,99.90
2023-02-22T17:16:05.582Z,99.90
2023-02-22T17:18:34.415Z,99.90
2023-02-22T17:21:03.066Z,99.90
2023-02-22T17:23:30.845Z,99.90
2023-02-22T17:26:02.132Z,99.90
2023-02-22T17:28:30.712Z,99.90
2023-02-22T17:31:01.589Z,99.90
2023-02-22T17:33:32.868Z,99.90
2023-02-22T17:36:02.673Z,99.90
2023-02-22T17:38:32.306Z,99.90
2023-02-22T17:41:03.203Z,99.90
2023-02-22T17:43:31.294Z,99.90
2023-02-22T17:45:59.080Z,99.90
2023-02-22T17:48:27.390Z,99.90
